Steyregg, Austria
Current Conditions -  °F | °C
As of 6:50 PM on Friday 28 Nov 2014 (Local Time) from LOWL Reporting Station
Broken Clouds Broken Clouds  
Wind Chill: 27°   Ceiling: 1400
Heat Index: 36°   Visibility: 6mi
Dew Point: 32°   Wind: 14mph
Humidity: 87%   Direction: 100°E
Pressure: 29.97"   Gusts: NA
Location:  48.29°N, 14.39°E
Report Text: LOWL 281650Z 10012KT 9999 SCT011 BKN014 02/M00 Q1015 TEMPO SCT012 BKN016
Loading
Personal Weather Stations






























Interactive Weather Map New forecast layout! Learn more

10-Day Weather Forecast

Advertisements
Track Severe Weather on mobile